sensor_id;sensor_type;location;lat;lon;timestamp;pressure;altitude;pressure_sealevel;temperature;humidity
5883;BME280;2967;51.488;6.618;2023-02-13T00:03:18;103450.91;;;10.26;100.00
5883;BME280;2967;51.488;6.618;2023-02-13T00:08:20;103448.31;;;10.24;100.00
5883;BME280;2967;51.488;6.618;2023-02-13T00:13:23;103438.66;;;10.22;100.00
5883;BME280;2967;51.488;6.618;2023-02-13T00:18:28;103446.47;;;10.28;100.00
5883;BME280;2967;51.488;6.618;2023-02-13T00:23:33;103436.72;;;10.30;100.00
5883;BME280;2967;51.488;6.618;2023-02-13T00:28:36;103427.91;;;10.29;100.00
5883;BME280;2967;51.488;6.618;2023-02-13T00:33:40;103430.59;;;10.28;100.00
5883;BME280;2967;51.488;6.618;2023-02-13T00:38:45;103433.09;;;10.34;100.00
5883;BME280;2967;51.488;6.618;2023-02-13T00:43:48;103431.34;;;10.33;100.00
5883;BME280;2967;51.488;6.618;2023-02-13T00:48:52;103436.63;;;10.34;100.00
5883;BME280;2967;51.488;6.618;2023-02-13T00:53:55;103416.50;;;10.27;100.00
5883;BME280;2967;51.488;6.618;2023-02-13T00:58:58;103428.63;;;10.36;100.00
5883;BME280;2967;51.488;6.618;2023-02-13T01:04:02;103429.41;;;10.41;100.00
5883;BME280;2967;51.488;6.618;2023-02-13T01:09:05;103434.84;;;10.35;100.00
5883;BME280;2967;51.488;6.618;2023-02-13T01:14:09;103436.56;;;10.37;100.00
5883;BME280;2967;51.488;6.618;2023-02-13T01:19:13;103436.66;;;10.33;100.00
5883;BME280;2967;51.488;6.618;2023-02-13T01:24:17;103433.16;;;10.31;100.00
5883;BME280;2967;51.488;6.618;2023-02-13T01:29:20;103427.81;;;10.34;100.00
5883;BME280;2967;51.488;6.618;2023-02-13T01:34:24;103425.25;;;10.29;100.00
5883;BME280;2967;51.488;6.618;2023-02-13T01:39:26;103410.31;;;10.27;100.00
5883;BME280;2967;51.488;6.618;2023-02-13T01:44:49;103415.66;;;10.25;100.00
5883;BME280;2967;51.488;6.618;2023-02-13T01:50:00;103408.63;;;10.24;100.00
5883;BME280;2967;51.488;6.618;2023-02-13T01:55:05;103390.44;;;10.09;100.00
5883;BME280;2967;51.488;6.618;2023-02-13T02:05:48;103365.94;;;10.00;100.00
5883;BME280;2967;51.488;6.618;2023-02-13T02:10:52;103407.66;;;10.27;100.00
5883;BME280;2967;51.488;6.618;2023-02-13T02:15:57;103412.00;;;10.31;100.00
5883;BME280;2967;51.488;6.618;2023-02-13T02:21:20;103411.03;;;10.35;100.00
5883;BME280;2967;51.488;6.618;2023-02-13T02:38:05;103416.50;;;10.27;100.00
5883;BME280;2967;51.488;6.618;2023-02-13T02:43:19;103403.25;;;10.29;100.00
5883;BME280;2967;51.488;6.618;2023-02-13T02:48:31;103404.00;;;10.32;100.00
5883;BME280;2967;51.488;6.618;2023-02-13T02:54:02;103408.44;;;10.32;100.00
5883;BME280;2967;51.488;6.618;2023-02-13T02:59:32;103407.25;;;10.46;100.00
5883;BME280;2967;51.488;6.618;2023-02-13T03:04:58;103397.50;;;10.46;100.00
5883;BME280;2967;51.488;6.618;2023-02-13T03:10:26;103390.97;;;10.25;100.00
5883;BME280;2967;51.488;6.618;2023-02-13T03:15:49;103403.09;;;10.35;100.00
5883;BME280;2967;51.488;6.618;2023-02-13T03:21:15;103407.47;;;10.36;100.00
5883;BME280;2967;51.488;6.618;2023-02-13T03:26:41;103400.41;;;10.36;100.00
5883;BME280;2967;51.488;6.618;2023-02-13T03:31:52;103405.97;;;10.24;100.00
5883;BME280;2967;51.488;6.618;2023-02-13T03:37:06;103372.81;;;10.08;100.00
5883;BME280;2967;51.488;6.618;2023-02-13T03:42:34;103408.72;;;10.20;100.00
5883;BME280;2967;51.488;6.618;2023-02-13T03:47:40;103404.34;;;10.19;100.00
5883;BME280;2967;51.488;6.618;2023-02-13T03:52:49;103413.22;;;10.15;100.00
5883;BME280;2967;51.488;6.618;2023-02-13T03:57:55;103412.31;;;10.17;100.00
5883;BME280;2967;51.488;6.618;2023-02-13T04:03:23;103408.81;;;10.15;100.00
5883;BME280;2967;51.488;6.618;2023-02-13T04:08:29;103413.41;;;10.07;100.00
5883;BME280;2967;51.488;6.618;2023-02-13T04:13:33;103383.09;;;9.81;100.00
5883;BME280;2967;51.488;6.618;2023-02-13T04:18:37;103411.00;;;9.94;100.00
5883;BME280;2967;51.488;6.618;2023-02-13T04:23:42;103417.09;;;9.97;100.00
5883;BME280;2967;51.488;6.618;2023-02-13T04:28:44;103409.97;;;10.01;100.00
5883;BME280;2967;51.488;6.618;2023-02-13T04:33:47;103398.63;;;9.96;100.00
5883;BME280;2967;51.488;6.618;2023-02-13T04:38:51;103420.44;;;10.07;100.00
5883;BME280;2967;51.488;6.618;2023-02-13T04:43:54;103420.56;;;10.02;100.00
5883;BME280;2967;51.488;6.618;2023-02-13T04:48:56;103413.47;;;10.01;100.00
5883;BME280;2967;51.488;6.618;2023-02-13T04:54:00;103410.84;;;10.03;100.00
5883;BME280;2967;51.488;6.618;2023-02-13T04:59:03;103400.47;;;9.92;100.00
5883;BME280;2967;51.488;6.618;2023-02-13T05:04:05;103410.09;;;9.95;100.00
5883;BME280;2967;51.488;6.618;2023-02-13T05:09:10;103400.56;;;9.88;100.00
5883;BME280;2967;51.488;6.618;2023-02-13T05:14:12;103401.69;;;9.75;100.00
5883;BME280;2967;51.488;6.618;2023-02-13T05:19:15;103390.31;;;9.71;100.00
5883;BME280;2967;51.488;6.618;2023-02-13T05:24:19;103404.34;;;9.75;100.00
5883;BME280;2967;51.488;6.618;2023-02-13T05:29:22;103396.47;;;9.72;100.00
5883;BME280;2967;51.488;6.618;2023-02-13T05:34:26;103398.25;;;9.71;100.00
5883;BME280;2967;51.488;6.618;2023-02-13T05:39:30;103397.47;;;9.68;100.00
5883;BME280;2967;51.488;6.618;2023-02-13T05:44:34;103359.16;;;9.44;100.00
5883;BME280;2967;51.488;6.618;2023-02-13T05:49:36;103388.81;;;9.60;100.00
5883;BME280;2967;51.488;6.618;2023-02-13T05:54:41;103380.25;;;9.46;100.00
5883;BME280;2967;51.488;6.618;2023-02-13T05:59:43;103383.19;;;9.31;100.00
5883;BME280;2967;51.488;6.618;2023-02-13T06:04:46;103383.19;;;9.31;100.00
5883;BME280;2967;51.488;6.618;2023-02-13T06:09:50;103279.53;;;8.73;100.00
5883;BME280;2967;51.488;6.618;2023-02-13T06:14:52;103388.50;;;9.29;100.00
5883;BME280;2967;51.488;6.618;2023-02-13T06:19:55;103381.44;;;9.30;100.00
5883;BME280;2967;51.488;6.618;2023-02-13T06:24:59;103353.66;;;9.09;100.00
5883;BME280;2967;51.488;6.618;2023-02-13T06:30:02;103370.16;;;9.22;100.00
5883;BME280;2967;51.488;6.618;2023-02-13T06:35:06;103386.00;;;9.20;100.00
5883;BME280;2967;51.488;6.618;2023-02-13T06:40:12;103384.47;;;9.09;100.00
5883;BME280;2967;51.488;6.618;2023-02-13T06:45:15;103384.47;;;9.09;100.00
5883;BME280;2967;51.488;6.618;2023-02-13T06:50:18;103380.09;;;9.08;100.00
5883;BME280;2967;51.488;6.618;2023-02-13T06:55:22;103389.00;;;9.01;100.00
5883;BME280;2967;51.488;6.618;2023-02-13T07:00:25;103389.84;;;9.03;100.00
5883;BME280;2967;51.488;6.618;2023-02-13T07:05:28;103382.00;;;8.98;100.00
5883;BME280;2967;51.488;6.618;2023-02-13T07:10:32;103392.72;;;8.91;100.00
5883;BME280;2967;51.488;6.618;2023-02-13T07:15:36;103404.94;;;8.95;100.00
5883;BME280;2967;51.488;6.618;2023-02-13T07:20:38;103402.31;;;8.95;100.00
5883;BME280;2967;51.488;6.618;2023-02-13T07:25:42;103401.53;;;8.88;100.00
5883;BME280;2967;51.488;6.618;2023-02-13T07:30:45;103405.91;;;8.92;100.00
5883;BME280;2967;51.488;6.618;2023-02-13T07:35:48;103394.66;;;8.80;100.00
5883;BME280;2967;51.488;6.618;2023-02-13T07:40:53;103412.94;;;8.90;100.00
5883;BME280;2967;51.488;6.618;2023-02-13T07:45:57;103419.00;;;8.97;100.00
5883;BME280;2967;51.488;6.618;2023-02-13T07:51:03;103417.94;;;9.07;100.00
5883;BME280;2967;51.488;6.618;2023-02-13T07:56:09;103416.25;;;9.04;100.00
5883;BME280;2967;51.488;6.618;2023-02-13T08:01:13;103420.56;;;9.07;100.00
5883;BME280;2967;51.488;6.618;2023-02-13T08:06:16;103381.25;;;8.92;100.00
5883;BME280;2967;51.488;6.618;2023-02-13T08:11:25;103430.91;;;9.22;100.00
5883;BME280;2967;51.488;6.618;2023-02-13T08:16:49;103426.38;;;9.27;100.00
5883;BME280;2967;51.488;6.618;2023-02-13T08:21:51;103418.50;;;9.25;100.00
5883;BME280;2967;51.488;6.618;2023-02-13T08:26:55;103424.38;;;9.41;100.00
5883;BME280;2967;51.488;6.618;2023-02-13T08:31:58;103425.16;;;9.47;100.00
5883;BME280;2967;51.488;6.618;2023-02-13T08:37:01;103430.28;;;9.55;100.00
5883;BME280;2967;51.488;6.618;2023-02-13T08:42:06;103435.53;;;9.58;100.00
5883;BME280;2967;51.488;6.618;2023-02-13T08:47:08;103440.66;;;9.65;100.00
5883;BME280;2967;51.488;6.618;2023-02-13T08:52:11;103435.25;;;9.71;100.00
5883;BME280;2967;51.488;6.618;2023-02-13T08:57:15;103439.44;;;9.83;100.00
5883;BME280;2967;51.488;6.618;2023-02-13T09:02:17;103435.06;;;9.80;100.00
5883;BME280;2967;51.488;6.618;2023-02-13T09:07:20;103436.69;;;9.87;100.00
5883;BME280;2967;51.488;6.618;2023-02-13T09:12:24;103426.94;;;9.91;100.00
5883;BME280;2967;51.488;6.618;2023-02-13T09:17:27;103445.22;;;10.04;100.00
5883;BME280;2967;51.488;6.618;2023-02-13T09:22:29;103444.94;;;10.18;100.00
5883;BME280;2967;51.488;6.618;2023-02-13T09:27:34;103447.41;;;10.25;100.00
5883;BME280;2967;51.488;6.618;2023-02-13T09:32:40;103443.84;;;10.28;100.00
5883;BME280;2967;51.488;6.618;2023-02-13T09:37:43;103445.41;;;10.36;100.00
5883;BME280;2967;51.488;6.618;2023-02-13T09:42:49;103446.22;;;10.38;100.00
5883;BME280;2967;51.488;6.618;2023-02-13T09:53:30;103451.28;;;10.48;100.00
5883;BME280;2967;51.488;6.618;2023-02-13T09:58:43;103447.47;;;10.60;100.00
5883;BME280;2967;51.488;6.618;2023-02-13T10:03:53;103446.56;;;10.62;100.00
5883;BME280;2967;51.488;6.618;2023-02-13T10:09:08;103441.06;;;10.71;100.00
5883;BME280;2967;51.488;6.618;2023-02-13T10:14:17;103440.84;;;10.80;100.00
5883;BME280;2967;51.488;6.618;2023-02-13T10:19:30;103442.44;;;10.87;100.00
5883;BME280;2967;51.488;6.618;2023-02-13T10:24:38;103435.25;;;10.91;100.00
5883;BME280;2967;51.488;6.618;2023-02-13T10:29:45;103442.13;;;10.99;100.00
5883;BME280;2967;51.488;6.618;2023-02-13T10:35:18;103421.16;;;10.90;100.00
5883;BME280;2967;51.488;6.618;2023-02-13T10:40:23;103444.59;;;11.07;100.00
5883;BME280;2967;51.488;6.618;2023-02-13T10:45:47;103449.78;;;11.11;100.00
5883;BME280;2967;51.488;6.618;2023-02-13T10:50:56;103446.78;;;11.25;100.00
5883;BME280;2967;51.488;6.618;2023-02-13T10:56:14;103423.72;;;11.28;100.00
5883;BME280;2967;51.488;6.618;2023-02-13T11:01:24;103422.69;;;11.34;100.00
5883;BME280;2967;51.488;6.618;2023-02-13T11:06:32;103391.28;;;11.19;100.00
5883;BME280;2967;51.488;6.618;2023-02-13T11:11:38;103424.19;;;11.44;100.00
5883;BME280;2967;51.488;6.618;2023-02-13T11:16:52;103409.78;;;11.54;100.00
5883;BME280;2967;51.488;6.618;2023-02-13T11:21:58;103398.88;;;11.66;100.00
5883;BME280;2967;51.488;6.618;2023-02-13T11:27:05;103402.06;;;11.78;100.00
5883;BME280;2967;51.488;6.618;2023-02-13T11:32:23;103378.22;;;11.77;100.00
5883;BME280;2967;51.488;6.618;2023-02-13T11:37:27;103395.66;;;11.85;100.00
5883;BME280;2967;51.488;6.618;2023-02-13T11:42:31;103377.72;;;11.93;100.00
5883;BME280;2967;51.488;6.618;2023-02-13T11:47:38;103367.72;;;12.03;100.00
5883;BME280;2967;51.488;6.618;2023-02-13T11:52:42;103370.03;;;12.13;100.00
5883;BME280;2967;51.488;6.618;2023-02-13T11:57:55;103366.03;;;12.29;100.00
5883;BME280;2967;51.488;6.618;2023-02-13T12:02:59;103362.47;;;12.56;100.00
5883;BME280;2967;51.488;6.618;2023-02-13T12:08:04;103358.53;;;12.95;100.00
5883;BME280;2967;51.488;6.618;2023-02-13T12:13:14;103354.28;;;13.40;100.00
5883;BME280;2967;51.488;6.618;2023-02-13T12:18:27;103347.13;;;13.65;98.84
5883;BME280;2967;51.488;6.618;2023-02-13T12:23:39;103344.78;;;13.80;97.55
5883;BME280;2967;51.488;6.618;2023-02-13T12:28:56;103338.47;;;14.06;96.30
5883;BME280;2967;51.488;6.618;2023-02-13T12:34:37;103342.16;;;14.25;94.89
5883;BME280;2967;51.488;6.618;2023-02-13T12:39:54;103320.38;;;14.37;93.85
5883;BME280;2967;51.488;6.618;2023-02-13T12:45:09;103325.41;;;14.44;92.37
5883;BME280;2967;51.488;6.618;2023-02-13T12:50:29;103284.81;;;14.38;92.29
5883;BME280;2967;51.488;6.618;2023-02-13T12:55:55;103299.25;;;14.54;91.75
5883;BME280;2967;51.488;6.618;2023-02-13T13:01:13;103300.03;;;14.56;91.35
5883;BME280;2967;51.488;6.618;2023-02-13T13:06:34;103296.75;;;14.71;92.21
5883;BME280;2967;51.488;6.618;2023-02-13T13:12:06;103295.41;;;14.61;91.43
5883;BME280;2967;51.488;6.618;2023-02-13T13:17:23;103290.78;;;14.44;90.72
5883;BME280;2967;51.488;6.618;2023-02-13T13:22:33;103282.47;;;14.30;91.79
5883;BME280;2967;51.488;6.618;2023-02-13T13:27:42;103282.38;;;14.33;92.78
5883;BME280;2967;51.488;6.618;2023-02-13T13:32:47;103271.63;;;14.56;92.72
5883;BME280;2967;51.488;6.618;2023-02-13T13:37:57;103267.16;;;14.97;88.37
5883;BME280;2967;51.488;6.618;2023-02-13T13:43:10;103263.91;;;15.30;88.21
5883;BME280;2967;51.488;6.618;2023-02-13T13:48:39;103231.94;;;15.49;86.01
5883;BME280;2967;51.488;6.618;2023-02-13T13:54:23;103271.47;;;15.96;84.90
5883;BME280;2967;51.488;6.618;2023-02-13T13:59:57;103265.63;;;16.23;82.87
5883;BME280;2967;51.488;6.618;2023-02-13T14:05:07;103256.63;;;16.26;88.14
5883;BME280;2967;51.488;6.618;2023-02-13T14:16:10;103243.75;;;15.80;87.91
5883;BME280;2967;51.488;6.618;2023-02-13T14:21:21;103237.69;;;15.77;85.95
5883;BME280;2967;51.488;6.618;2023-02-13T14:26:31;103235.34;;;15.71;84.60
5883;BME280;2967;51.488;6.618;2023-02-13T14:31:38;103230.63;;;15.39;89.18
5883;BME280;2967;51.488;6.618;2023-02-13T14:36:44;103228.97;;;15.16;89.91
5883;BME280;2967;51.488;6.618;2023-02-13T14:42:04;103216.03;;;14.89;92.90
5883;BME280;2967;51.488;6.618;2023-02-13T14:47:27;103214.88;;;14.54;100.00
5883;BME280;2967;51.488;6.618;2023-02-13T14:52:33;103213.25;;;14.30;100.00
5883;BME280;2967;51.488;6.618;2023-02-13T14:57:38;103203.06;;;14.20;100.00
5883;BME280;2967;51.488;6.618;2023-02-13T15:02:48;103199.63;;;14.16;98.11
5883;BME280;2967;51.488;6.618;2023-02-13T15:07:56;103196.22;;;14.13;100.00
5883;BME280;2967;51.488;6.618;2023-02-13T15:13:01;103194.47;;;14.12;98.34
5883;BME280;2967;51.488;6.618;2023-02-13T15:18:09;103190.47;;;14.02;100.00
5883;BME280;2967;51.488;6.618;2023-02-13T15:23:19;103194.56;;;13.89;100.00
5883;BME280;2967;51.488;6.618;2023-02-13T15:28:23;103199.13;;;13.85;99.17
5883;BME280;2967;51.488;6.618;2023-02-13T15:33:31;103201.63;;;13.90;99.54
5883;BME280;2967;51.488;6.618;2023-02-13T15:38:35;103202.66;;;13.86;96.96
5883;BME280;2967;51.488;6.618;2023-02-13T15:43:41;103214.47;;;13.79;98.42
5883;BME280;2967;51.488;6.618;2023-02-13T15:48:46;103210.31;;;13.72;100.00
5883;BME280;2967;51.488;6.618;2023-02-13T15:53:50;103201.59;;;13.68;100.00
5883;BME280;2967;51.488;6.618;2023-02-13T15:58:53;103186.28;;;13.52;100.00
5883;BME280;2967;51.488;6.618;2023-02-13T16:04:01;103187.63;;;13.40;100.00
5883;BME280;2967;51.488;6.618;2023-02-13T16:09:04;103178.41;;;13.27;100.00
5883;BME280;2967;51.488;6.618;2023-02-13T16:14:14;103177.69;;;13.22;100.00
5883;BME280;2967;51.488;6.618;2023-02-13T16:19:31;103187.69;;;13.16;100.00
5883;BME280;2967;51.488;6.618;2023-02-13T16:24:35;103189.13;;;13.02;100.00
5883;BME280;2967;51.488;6.618;2023-02-13T16:29:44;103189.38;;;12.96;100.00
5883;BME280;2967;51.488;6.618;2023-02-13T16:34:52;103185.13;;;12.90;100.00
5883;BME280;2967;51.488;6.618;2023-02-13T16:39:55;103181.91;;;12.81;100.00
5883;BME280;2967;51.488;6.618;2023-02-13T16:45:20;103175.25;;;12.69;100.00
5883;BME280;2967;51.488;6.618;2023-02-13T16:50:24;103189.88;;;12.56;100.00
5883;BME280;2967;51.488;6.618;2023-02-13T16:55:27;103189.31;;;12.48;100.00
5883;BME280;2967;51.488;6.618;2023-02-13T17:00:32;103197.50;;;12.41;100.00
5883;BME280;2967;51.488;6.618;2023-02-13T17:05:36;103204.63;;;12.40;100.00
5883;BME280;2967;51.488;6.618;2023-02-13T17:10:39;103206.66;;;12.32;100.00
5883;BME280;2967;51.488;6.618;2023-02-13T17:15:44;103205.38;;;12.18;100.00
5883;BME280;2967;51.488;6.618;2023-02-13T17:20:48;103209.28;;;12.06;100.00
5883;BME280;2967;51.488;6.618;2023-02-13T17:25:52;103204.63;;;11.87;100.00
5883;BME280;2967;51.488;6.618;2023-02-13T17:30:57;103221.50;;;11.84;100.00
5883;BME280;2967;51.488;6.618;2023-02-13T17:36:03;103229.56;;;11.81;100.00
5883;BME280;2967;51.488;6.618;2023-02-13T17:41:10;103234.19;;;11.75;100.00
5883;BME280;2967;51.488;6.618;2023-02-13T17:46:15;103230.22;;;11.60;100.00
5883;BME280;2967;51.488;6.618;2023-02-13T17:51:19;103233.38;;;11.73;100.00
5883;BME280;2967;51.488;6.618;2023-02-13T17:56:22;103230.75;;;11.42;100.00
5883;BME280;2967;51.488;6.618;2023-02-13T18:01:25;103172.78;;;11.01;100.00
5883;BME280;2967;51.488;6.618;2023-02-13T18:06:29;103225.97;;;11.24;100.00
5883;BME280;2967;51.488;6.618;2023-02-13T18:11:33;103220.09;;;11.15;100.00
5883;BME280;2967;51.488;6.618;2023-02-13T18:16:35;103216.63;;;11.13;100.00
5883;BME280;2967;51.488;6.618;2023-02-13T18:21:40;103217.72;;;11.04;100.00
5883;BME280;2967;51.488;6.618;2023-02-13T18:26:43;103211.72;;;10.99;100.00
5883;BME280;2967;51.488;6.618;2023-02-13T18:31:46;103225.34;;;10.84;100.00
5883;BME280;2967;51.488;6.618;2023-02-13T18:36:51;103217.91;;;10.66;100.00
5883;BME280;2967;51.488;6.618;2023-02-13T18:41:53;103213.13;;;10.48;100.00
5883;BME280;2967;51.488;6.618;2023-02-13T18:46:57;103212.91;;;10.56;100.00
5883;BME280;2967;51.488;6.618;2023-02-13T18:52:01;103214.09;;;10.44;100.00
5883;BME280;2967;51.488;6.618;2023-02-13T18:57:04;103210.94;;;10.31;100.00
5883;BME280;2967;51.488;6.618;2023-02-13T19:02:08;103209.19;;;10.30;100.00
5883;BME280;2967;51.488;6.618;2023-02-13T19:07:12;103205.03;;;10.20;100.00
5883;BME280;2967;51.488;6.618;2023-02-13T19:12:15;103204.63;;;10.00;100.00
5883;BME280;2967;51.488;6.618;2023-02-13T19:17:18;103208.19;;;9.99;100.00
5883;BME280;2967;51.488;6.618;2023-02-13T19:22:22;103197.81;;;9.90;100.00
5883;BME280;2967;51.488;6.618;2023-02-13T19:27:25;103206.91;;;9.77;100.00
5883;BME280;2967;51.488;6.618;2023-02-13T19:32:28;103214.00;;;9.76;100.00
5883;BME280;2967;51.488;6.618;2023-02-13T19:37:32;103216.78;;;9.70;100.00
5883;BME280;2967;51.488;6.618;2023-02-13T19:42:44;103222.94;;;9.71;100.00
5883;BME280;2967;51.488;6.618;2023-02-13T19:47:48;103237.25;;;9.62;100.00
5883;BME280;2967;51.488;6.618;2023-02-13T19:52:52;103225.97;;;9.54;100.00
5883;BME280;2967;51.488;6.618;2023-02-13T19:57:56;103231.09;;;9.60;100.00
5883;BME280;2967;51.488;6.618;2023-02-13T20:02:59;103229.34;;;9.59;100.00
5883;BME280;2967;51.488;6.618;2023-02-13T20:08:05;103225.88;;;9.59;100.00
5883;BME280;2967;51.488;6.618;2023-02-13T20:13:08;103230.28;;;9.57;100.00
5883;BME280;2967;51.488;6.618;2023-02-13T20:18:10;103230.56;;;9.45;100.00
5883;BME280;2967;51.488;6.618;2023-02-13T20:23:14;103220.88;;;9.45;100.00
5883;BME280;2967;51.488;6.618;2023-02-13T20:28:18;103223.53;;;9.44;100.00
5883;BME280;2967;51.488;6.618;2023-02-13T20:33:21;103228.00;;;9.42;100.00
5883;BME280;2967;51.488;6.618;2023-02-13T20:38:25;103231.81;;;9.27;100.00
5883;BME280;2967;51.488;6.618;2023-02-13T20:43:27;103224.00;;;9.23;100.00
5883;BME280;2967;51.488;6.618;2023-02-13T20:48:34;103223.19;;;9.19;100.00
5883;BME280;2967;51.488;6.618;2023-02-13T20:53:39;103211.03;;;9.12;100.00
5883;BME280;2967;51.488;6.618;2023-02-13T20:58:43;103208.34;;;9.14;100.00
5883;BME280;2967;51.488;6.618;2023-02-13T21:03:47;103212.00;;;9.07;100.00
5883;BME280;2967;51.488;6.618;2023-02-13T21:08:55;103217.06;;;9.17;100.00
5883;BME280;2967;51.488;6.618;2023-02-13T21:13:57;103208.41;;;9.11;100.00
5883;BME280;2967;51.488;6.618;2023-02-13T21:19:03;103216.16;;;9.18;100.00
5883;BME280;2967;51.488;6.618;2023-02-13T21:24:10;103217.06;;;9.17;100.00
5883;BME280;2967;51.488;6.618;2023-02-13T21:29:15;103211.63;;;9.25;100.00
5883;BME280;2967;51.488;6.618;2023-02-13T21:34:17;103200.50;;;9.09;100.00
5883;BME280;2967;51.488;6.618;2023-02-13T21:39:21;103209.03;;;9.23;100.00
5883;BME280;2967;51.488;6.618;2023-02-13T21:44:24;103208.94;;;9.28;100.00
5883;BME280;2967;51.488;6.618;2023-02-13T21:49:27;103210.81;;;9.21;100.00
5883;BME280;2967;51.488;6.618;2023-02-13T21:54:31;103204.47;;;9.30;100.00
5883;BME280;2967;51.488;6.618;2023-02-13T21:59:34;103198.28;;;9.31;100.00
5883;BME280;2967;51.488;6.618;2023-02-13T22:04:36;103203.59;;;9.29;100.00
5883;BME280;2967;51.488;6.618;2023-02-13T22:09:40;103211.56;;;9.28;100.00
5883;BME280;2967;51.488;6.618;2023-02-13T22:14:43;103214.97;;;9.33;100.00
5883;BME280;2967;51.488;6.618;2023-02-13T22:19:45;103213.31;;;9.29;100.00
5883;BME280;2967;51.488;6.618;2023-02-13T22:24:50;103216.78;;;9.31;100.00
5883;BME280;2967;51.488;6.618;2023-02-13T22:29:52;103209.69;;;9.33;100.00
5883;BME280;2967;51.488;6.618;2023-02-13T22:34:56;103209.78;;;9.30;100.00
5883;BME280;2967;51.488;6.618;2023-02-13T22:40:00;103212.50;;;9.25;100.00
5883;BME280;2967;51.488;6.618;2023-02-13T22:45:03;103201.25;;;9.16;100.00
5883;BME280;2967;51.488;6.618;2023-02-13T22:50:07;103209.78;;;9.30;100.00
5883;BME280;2967;51.488;6.618;2023-02-13T22:55:11;103207.28;;;9.22;100.00
5883;BME280;2967;51.488;6.618;2023-02-13T23:00:14;103210.63;;;9.30;100.00
5883;BME280;2967;51.488;6.618;2023-02-13T23:05:17;103206.28;;;9.28;100.00
5883;BME280;2967;51.488;6.618;2023-02-13T23:10:21;103189.72;;;9.20;100.00
5883;BME280;2967;51.488;6.618;2023-02-13T23:15:26;103213.31;;;9.29;100.00
5883;BME280;2967;51.488;6.618;2023-02-13T23:20:29;103212.50;;;9.25;100.00
5883;BME280;2967;51.488;6.618;2023-02-13T23:25:33;103202.97;;;9.17;100.00
5883;BME280;2967;51.488;6.618;2023-02-13T23:30:36;103212.50;;;9.25;100.00
5883;BME280;2967;51.488;6.618;2023-02-13T23:35:40;103219.53;;;9.26;100.00
5883;BME280;2967;51.488;6.618;2023-02-13T23:40:44;103209.13;;;9.19;100.00
5883;BME280;2967;51.488;6.618;2023-02-13T23:45:47;103207.34;;;9.19;100.00
5883;BME280;2967;51.488;6.618;2023-02-13T23:50:50;103208.25;;;9.18;100.00
5883;BME280;2967;51.488;6.618;2023-02-13T23:55:54;103211.63;;;9.25;100.00
